Time;durP1;ratioP1;P1;durP2;ratioP2;P2;SDS_P1;SDS_P2;PMS_P1;PMS_P2;Temp;Humidity;BMP_temperature;BMP_pressure;BME280_temperature;BME280_humidity;BME280_pressure;Samples;Min_cycle;Max_cycle;Signal;HPM_P1;HPM_P2
2022/02/05 00:04:39;;;;;;;23.10;15.73;;;;;;;5.41;100.00;99443.31;15323736;19;20817;-49
2022/02/05 00:10:02;;;;;;;18.03;15.17;;;;;;;5.41;100.00;99431.88;15342215;19;20155;-49
2022/02/05 00:15:27;;;;;;;20.37;14.70;;;;;;;5.42;100.00;99438.88;15324065;19;20147;-50
2022/02/05 00:41:01;;;;;;;20.23;16.47;;;;;;;5.38;100.00;99398.53;15305675;19;20485;-46
2022/02/05 00:51:13;;;;;;;22.30;17.07;;;;;;;5.34;100.00;99399.63;15338184;19;20623;-48
2022/02/05 01:01:15;;;;;;;21.67;16.53;;;;;;;5.33;100.00;99387.34;15315434;19;20493;-49
2022/02/05 01:06:19;;;;;;;21.67;16.10;;;;;;;5.34;100.00;99375.81;15319455;19;21199;-49
2022/02/05 01:26:26;;;;;;;17.80;15.10;;;;;;;5.43;100.00;99350.66;15306644;19;20507;-48
2022/02/05 01:31:37;;;;;;;18.90;14.73;;;;;;;5.44;100.00;99342.59;15333926;19;20164;-47
2022/02/05 01:52:20;;;;;;;17.57;14.90;;;;;;;5.51;100.00;99321.94;15325375;19;20148;-49
2022/02/05 01:57:39;;;;;;;18.43;14.73;;;;;;;5.49;100.00;99317.66;15341844;19;20208;-50
2022/02/05 02:18:50;;;;;;;19.03;14.30;;;;;;;5.44;100.00;99292.31;15336860;19;20219;-50
2022/02/05 02:24:06;;;;;;;16.73;13.80;;;;;;;5.50;100.00;99277.91;15341482;19;20165;-47
2022/02/05 02:29:15;;;;;;;17.93;13.43;;;;;;;5.48;100.00;99273.63;15338233;19;20231;-46
2022/02/05 02:34:24;;;;;;;17.53;13.63;;;;;;;5.52;100.00;99281.31;15308333;19;20611;-49
2022/02/05 02:39:35;;;;;;;17.40;13.83;;;;;;;5.52;100.00;99269.88;15327587;19;20200;-47
2022/02/05 02:44:39;;;;;;;18.80;13.33;;;;;;;5.39;100.00;99264.47;15339083;19;21433;-49
2022/02/05 02:49:54;;;;;;;16.10;12.37;;;;;;;5.44;100.00;99265.00;15319053;19;20162;-47
2022/02/05 03:00:19;;;;;;;15.53;12.40;;;;;;;5.54;100.00;99246.81;15254801;19;20180;-46
2022/02/05 03:05:24;;;;;;;13.60;11.13;;;;;;;5.63;100.00;99254.19;15279909;19;20155;-49
2022/02/05 03:10:29;;;;;;;13.73;11.07;;;;;;;5.71;100.00;99259.84;15277315;19;20153;-50
2022/02/05 03:15:37;;;;;;;11.23;9.93;;;;;;;5.78;100.00;99245.31;15269457;19;20248;-48
2022/02/05 03:20:42;;;;;;;14.60;11.47;;;;;;;5.68;100.00;99238.84;15247280;19;20232;-49
2022/02/05 03:25:46;;;;;;;11.47;10.27;;;;;;;5.73;100.00;99236.78;15275354;19;20153;-47
2022/02/05 03:30:51;;;;;;;12.13;9.83;;;;;;;5.74;100.00;99238.50;15277834;19;20163;-49
2022/02/05 03:35:56;;;;;;;10.87;9.73;;;;;;;5.79;100.00;99231.13;15277160;19;20145;-48
2022/02/05 03:41:00;;;;;;;11.07;9.97;;;;;;;5.82;100.00;99230.91;15244930;19;20185;-47
2022/02/05 03:46:05;;;;;;;10.33;9.23;;;;;;;5.83;100.00;99222.03;15260624;19;20176;-48
2022/02/05 03:51:09;;;;;;;11.27;9.33;;;;;;;5.79;100.00;99221.41;15276751;19;20149;-47
2022/02/05 03:56:14;;;;;;;10.10;8.63;;;;;;;5.67;100.00;99216.00;15275528;19;20156;-48
2022/02/05 04:01:18;;;;;;;9.63;8.10;;;;;;;5.63;100.00;99217.13;15254725;19;20213;-49
2022/02/05 04:06:24;;;;;;;9.43;8.20;;;;;;;5.76;100.00;99220.72;15247493;19;20149;-49
2022/02/05 04:11:37;;;;;;;11.20;7.93;;;;;;;5.81;100.00;99200.09;15272232;19;20165;-50
2022/02/05 04:16:42;;;;;;;8.47;7.67;;;;;;;5.88;100.00;99196.16;15273991;19;20148;-48
2022/02/05 04:21:47;;;;;;;9.10;7.50;;;;;;;5.91;100.00;99193.34;15271175;19;20141;-47
2022/02/05 04:26:51;;;;;;;8.03;7.23;;;;;;;5.98;100.00;99209.66;15243653;19;20141;-46
2022/02/05 04:31:56;;;;;;;7.23;6.53;;;;;;;6.02;100.00;99214.69;15259222;19;20661;-46
2022/02/05 04:37:03;;;;;;;6.57;5.83;;;;;;;5.97;100.00;99219.41;15270554;19;20194;-48
2022/02/05 04:42:13;;;;;;;4.27;3.63;;;;;;;6.00;100.00;99229.81;15270284;19;20161;-48
2022/02/05 04:47:41;;;;;;;2.30;1.40;;;;;;;5.74;100.00;99260.53;15252563;19;20180;-46
2022/02/05 04:58:24;;;;;;;0.50;0.50;;;;;;;4.79;100.00;99305.91;15269752;19;20141;-50
2022/02/05 05:03:41;;;;;;;0.47;0.47;;;;;;;4.66;100.00;99332.16;15269132;19;20152;-47
2022/02/05 05:08:52;;;;;;;0.43;0.43;;;;;;;4.46;100.00;99357.06;15258678;19;20155;-49
2022/02/05 05:24:33;;;;;;;0.60;0.60;;;;;;;3.98;100.00;99408.88;15270112;19;20193;-50
2022/02/05 05:29:38;;;;;;;0.87;0.70;;;;;;;3.92;100.00;99440.88;15270496;19;20160;-48
2022/02/05 05:34:42;;;;;;;1.30;1.00;;;;;;;3.95;100.00;99447.78;15237949;19;20159;-47
2022/02/05 05:39:48;;;;;;;1.23;0.80;;;;;;;3.84;100.00;99474.72;15254233;19;20669;-47
2022/02/05 05:45:12;;;;;;;1.00;0.77;;;;;;;3.76;100.00;99482.16;15269264;19;20153;-50
2022/02/05 05:50:47;;;;;;;0.70;0.70;;;;;;;3.84;100.00;99506.41;15268549;19;20144;-50
2022/02/05 05:55:44;;;;;;;0.93;0.93;;;;;;;3.79;100.00;99513.69;15245677;19;20336;-49
2022/02/05 06:00:50;;;;;;;1.10;1.00;;;;;;;3.78;100.00;99543.63;15241599;19;20643;-48
2022/02/05 06:05:55;;;;;;;1.30;1.20;;;;;;;3.76;100.00;99553.41;15267882;19;20180;-47
2022/02/05 06:10:59;;;;;;;1.30;1.30;;;;;;;3.73;100.00;99560.63;15268944;19;20149;-49
2022/02/05 06:16:09;;;;;;;1.57;1.47;;;;;;;3.67;100.00;99598.69;15260981;19;20144;-48
2022/02/05 06:21:14;;;;;;;2.10;1.63;;;;;;;3.61;100.00;99609.56;15234391;19;20148;-49
2022/02/05 06:26:18;;;;;;;2.63;2.23;;;;;;;3.58;100.00;99609.69;15267444;19;20195;-47
2022/02/05 06:31:22;;;;;;;2.43;2.23;;;;;;;3.58;100.00;99625.53;15281094;19;20599;-46
2022/02/05 06:36:27;;;;;;;2.30;2.10;;;;;;;3.63;100.00;99615.59;15282619;19;20249;-49
2022/02/05 06:41:31;;;;;;;3.57;2.30;;;;;;;3.77;100.00;99618.44;15245808;19;20891;-47
2022/02/05 06:46:36;;;;;;;2.43;2.13;;;;;;;3.84;100.00;99648.91;15264640;19;20149;-48
2022/02/05 06:51:40;;;;;;;2.03;1.57;;;;;;;3.88;100.00;99654.88;15281490;19;20811;-45
2022/02/05 06:56:45;;;;;;;1.40;1.30;;;;;;;3.95;100.00;99657.16;15279747;19;20148;-47
2022/02/05 07:01:49;;;;;;;2.67;1.27;;;;;;;3.91;100.00;99692.53;15262044;19;20283;-47
2022/02/05 07:06:57;;;;;;;2.80;1.20;;;;;;;3.93;100.00;99695.97;15251612;19;20493;-50
2022/02/05 07:12:01;;;;;;;2.80;1.40;;;;;;;4.06;100.00;99690.09;15277079;19;20180;-49
2022/02/05 07:17:13;;;;;;;3.03;1.40;;;;;;;4.02;100.00;99728.13;15276407;19;20163;-46
2022/02/05 07:22:18;;;;;;;2.27;1.50;;;;;;;4.12;100.00;99713.56;15271151;19;20168;-48
2022/02/05 07:32:39;;;;;;;5.53;1.60;;;;;;;4.23;100.00;99745.59;15258755;19;20691;-47
2022/02/05 07:37:44;;;;;;;4.70;1.70;;;;;;;4.26;100.00;99745.44;15267150;19;20262;-47
2022/02/05 07:42:48;;;;;;;5.57;1.33;;;;;;;4.30;100.00;99754.94;15265812;19;20145;-49
2022/02/05 07:47:53;;;;;;;3.53;1.60;;;;;;;4.43;100.00;99764.00;15250119;19;20907;-49
2022/02/05 07:52:57;;;;;;;2.03;1.43;;;;;;;4.57;100.00;99774.75;15245699;19;20146;-47
2022/02/05 07:58:02;;;;;;;3.13;1.40;;;;;;;4.67;100.00;99783.94;15269275;19;20167;-51
2022/02/05 08:03:07;;;;;;;4.93;1.90;;;;;;;4.70;100.00;99767.09;15262507;19;20160;-51
2022/02/05 08:08:15;;;;;;;1.83;1.57;;;;;;;4.80;100.00;99793.91;15264648;19;20145;-50
2022/02/05 08:13:20;;;;;;;6.30;1.83;;;;;;;4.90;100.00;99795.19;15238674;19;20141;-50
2022/02/05 08:18:25;;;;;;;3.40;1.70;;;;;;;5.08;100.00;99802.19;15262003;19;20227;-49
2022/02/05 08:23:31;;;;;;;5.20;1.70;;;;;;;5.07;100.00;99819.00;15261983;19;20187;-50
2022/02/05 08:28:36;;;;;;;3.27;1.73;;;;;;;5.13;100.00;99812.53;15260748;19;20133;-50
2022/02/05 08:33:43;;;;;;;3.03;1.93;;;;;;;5.26;100.00;99818.94;15240044;19;20240;-48
2022/02/05 08:38:48;;;;;;;2.10;1.90;;;;;;;5.48;100.00;99830.13;15247384;19;20188;-47
2022/02/05 08:43:52;;;;;;;4.40;2.37;;;;;;;5.46;100.00;99839.06;15264117;19;20191;-48
2022/02/05 08:48:57;;;;;;;3.03;2.03;;;;;;;5.50;100.00;99832.69;15266064;19;20178;-50
2022/02/05 08:54:01;;;;;;;4.03;1.80;;;;;;;5.35;100.00;99851.06;15253688;19;20165;-51
2022/02/05 08:59:06;;;;;;;3.67;1.93;;;;;;;5.37;100.00;99838.63;15237194;19;20264;-49
2022/02/05 09:04:19;;;;;;;4.23;2.27;;;;;;;5.26;100.00;99851.53;15260570;19;20265;-49
2022/02/05 09:09:34;;;;;;;4.00;2.50;;;;;;;5.19;100.00;99858.06;15264902;19;20182;-49
2022/02/05 09:14:42;;;;;;;3.67;2.00;;;;;;;5.17;100.00;99883.72;15264236;19;20144;-50
2022/02/05 09:19:46;;;;;;;4.43;2.37;;;;;;;5.14;100.00;99873.28;15237327;19;20185;-49
2022/02/05 09:30:14;;;;;;;5.53;3.20;;;;;;;5.10;100.00;99871.72;15268358;19;20153;-50
2022/02/05 09:35:19;;;;;;;5.90;2.53;;;;;;;5.26;100.00;99885.06;15269069;19;20152;-50
2022/02/05 09:40:23;;;;;;;8.40;3.40;;;;;;;5.22;100.00;99897.56;15244355;19;20967;-50
2022/02/05 09:45:28;;;;;;;8.37;4.00;;;;;;;5.16;100.00;99891.75;15248700;19;20205;-47
2022/02/05 09:50:32;;;;;;;7.03;3.10;;;;;;;5.18;100.00;99898.66;15265259;19;21045;-48
2022/02/05 09:55:37;;;;;;;7.03;3.27;;;;;;;5.22;100.00;99910.78;15271844;19;20144;-50
2022/02/05 10:00:42;;;;;;;7.00;3.03;;;;;;;5.38;100.00;99909.13;15266561;19;20140;-47
2022/02/05 10:05:46;;;;;;;13.67;9.73;;;;;;;5.46;100.00;99900.78;15255163;19;21010;-53
2022/02/05 10:10:54;;;;;;;5.43;2.90;;;;;;;5.53;100.00;99906.66;15279694;19;20162;-51
2022/02/05 10:15:58;;;;;;;7.57;5.00;;;;;;;5.58;100.00;99901.97;15280929;19;20623;-55
2022/02/05 10:21:06;;;;;;;9.97;7.13;;;;;;;5.58;100.00;99900.16;15276962;19;20204;-52
2022/02/05 10:26:10;;;;;;;8.40;6.37;;;;;;;5.43;100.00;99888.56;15248199;19;20176;-52
2022/02/05 10:31:15;;;;;;;6.63;3.90;;;;;;;5.34;100.00;99902.25;15254832;19;20179;-52
2022/02/05 10:36:26;;;;;;;7.17;4.60;;;;;;;5.39;100.00;99915.28;15274056;19;20154;-52
2022/02/05 10:46:56;;;;;;;20.13;12.20;;;;;;;5.90;100.00;99901.22;15259122;19;20171;-53
2022/02/05 10:52:01;;;;;;;22.63;13.20;;;;;;;6.07;100.00;99918.88;15248339;19;20137;-53
2022/02/05 10:57:13;;;;;;;13.83;9.50;;;;;;;6.35;100.00;99907.69;15274484;19;20951;-54
2022/02/05 11:07:37;;;;;;;6.77;4.50;;;;;;;6.53;100.00;99933.19;15271590;19;20162;-54
2022/02/05 11:12:51;;;;;;;9.73;7.20;;;;;;;6.40;100.00;99916.25;15240224;19;20153;-53
2022/02/05 11:18:30;;;;;;;5.17;3.37;;;;;;;6.22;100.00;99911.91;15265192;19;20164;-52
2022/02/05 11:23:36;;;;;;;8.77;5.57;;;;;;;6.35;100.00;99932.38;15267318;19;20149;-54
2022/02/05 11:28:48;;;;;;;6.57;3.77;;;;;;;6.02;100.00;99921.78;15269033;19;20195;-50
2022/02/05 11:33:53;;;;;;;4.90;2.97;;;;;;;5.94;100.00;99923.94;15243161;19;20179;-53
2022/02/05 11:39:03;;;;;;;6.93;4.00;;;;;;;5.94;100.00;99929.25;15262822;19;20207;-54
2022/02/05 11:44:17;;;;;;;9.00;4.50;;;;;;;5.98;100.00;99914.91;15265242;19;20238;-54
2022/02/05 11:49:22;;;;;;;6.30;3.70;;;;;;;6.01;100.00;99935.94;15271695;19;20137;-53
2022/02/05 11:54:27;;;;;;;13.07;7.30;;;;;;;5.98;100.00;99935.25;15252867;19;20188;-51
2022/02/05 11:59:52;;;;;;;11.67;8.43;;;;;;;5.89;100.00;99926.00;15247370;19;20150;-52
2022/02/05 12:05:17;;;;;;;8.60;5.17;;;;;;;6.01;100.00;99946.53;15266137;19;20161;-54
2022/02/05 12:10:45;;;;;;;7.40;5.30;;;;;;;6.17;100.00;99932.47;15270855;19;20160;-54
2022/02/05 12:15:58;;;;;;;5.07;3.43;;;;;;;6.14;100.00;99929.09;15259253;19;20148;-53
2022/02/05 12:21:07;;;;;;;7.63;4.63;;;;;;;6.10;100.00;99930.16;15242642;19;20165;-51
2022/02/05 12:26:11;;;;;;;4.40;3.00;;;;;;;5.40;100.00;99961.97;15266081;19;20222;-52
2022/02/05 12:31:21;;;;;;;5.17;3.50;;;;;;;4.96;100.00;99957.00;15279798;19;20169;-55
2022/02/05 12:36:37;;;;;;;5.83;3.53;;;;;;;5.11;100.00;99950.13;15278585;19;20480;-52
2022/02/05 12:41:56;;;;;;;7.43;5.17;;;;;;;5.33;100.00;99958.75;15249109;19;20241;-56
2022/02/05 12:47:12;;;;;;;5.77;4.17;;;;;;;5.37;100.00;99938.28;15263793;19;20145;-53
2022/02/05 12:52:17;;;;;;;6.40;3.80;;;;;;;5.41;100.00;99945.16;15262030;19;20160;-51
2022/02/05 12:57:22;;;;;;;4.63;3.20;;;;;;;5.49;100.00;99950.06;15271648;19;20145;-53
2022/02/05 13:02:27;;;;;;;8.13;4.37;;;;;;;5.61;100.00;99952.09;15240236;19;20236;-52
2022/02/05 13:07:34;;;;;;;7.00;3.90;;;;;;;5.69;100.00;99963.16;15251079;19;20137;-50
2022/02/05 13:12:43;;;;;;;5.40;3.67;;;;;;;5.89;100.00;99973.66;15268894;19;20161;-52
2022/02/05 13:18:09;;;;;;;9.13;5.03;;;;;;;6.01;100.00;99962.44;15270082;19;20517;-55
2022/02/05 13:28:41;;;;;;;7.73;4.60;;;;;;;6.10;100.00;99961.94;15244789;19;20180;-49
2022/02/05 13:33:58;;;;;;;7.00;4.60;;;;;;;6.23;100.00;99983.38;15264594;19;20512;-52
2022/02/05 13:39:12;;;;;;;7.57;4.03;;;;;;;6.49;100.00;99979.34;15262710;19;20192;-55
2022/02/05 13:44:21;;;;;;;6.37;4.13;;;;;;;6.09;100.00;99992.03;15254524;19;20914;-54
2022/02/05 13:49:25;;;;;;;7.73;3.63;;;;;;;5.98;100.00;99994.38;15236340;19;20781;-55
2022/02/05 13:54:41;;;;;;;6.47;3.50;;;;;;;5.75;100.00;99991.97;15248782;19;20145;-55
2022/02/05 13:59:57;;;;;;;8.63;3.73;;;;;;;5.16;100.00;100014.25;15267441;19;20144;-55
2022/02/05 14:05:10;;;;;;;6.40;3.70;;;;;;;5.16;100.00;100008.97;15266668;19;20177;-52
2022/02/05 14:10:20;;;;;;;5.93;3.70;;;;;;;5.04;100.00;100001.59;15243330;19;20145;-49
2022/02/05 14:15:27;;;;;;;5.33;3.73;;;;;;;5.03;100.00;100013.13;15244109;19;20611;-49
2022/02/05 14:20:37;;;;;;;5.97;3.40;;;;;;;5.00;100.00;100018.53;15265746;19;20268;-50
2022/02/05 14:26:08;;;;;;;6.70;3.60;;;;;;;4.97;100.00;100021.31;15266336;19;20141;-51
2022/02/05 14:31:17;;;;;;;5.63;3.33;;;;;;;4.84;100.00;100014.88;15250857;19;20153;-50
2022/02/05 14:40:17;;;;;;;5.13;4.00;;;;;;;4.76;100.00;100035.50;15242717;19;20161;-52
2022/02/05 14:42:16;;;;;;;5.47;3.80;;;;;;;4.69;100.00;100041.09;15255674;19;20919;-50
2022/02/05 14:47:22;;;;;;;6.83;4.03;;;;;;;4.57;100.00;100043.41;15270571;19;20160;-50
2022/02/05 14:52:27;;;;;;;7.00;4.70;;;;;;;4.41;100.00;100043.22;15269181;19;20670;-50
2022/02/05 14:57:32;;;;;;;8.20;5.47;;;;;;;4.26;100.00;100041.22;15251391;19;20157;-52
2022/02/05 15:02:36;;;;;;;13.67;7.27;;;;;;;4.10;100.00;100061.31;15269861;19;21095;-49
2022/02/05 15:07:42;;;;;;;12.90;6.10;;;;;;;4.02;100.00;100079.22;15278123;19;20153;-51
2022/02/05 15:12:47;;;;;;;11.90;6.80;;;;;;;3.92;100.00;100073.47;15277557;19;20143;-49
2022/02/05 15:17:52;;;;;;;12.13;4.70;;;;;;;3.95;100.00;100083.91;15246269;19;20828;-50
2022/02/05 15:22:56;;;;;;;6.97;5.40;;;;;;;4.14;100.00;100076.94;15230526;19;20182;-50
2022/02/05 15:28:01;;;;;;;7.03;4.63;;;;;;;4.23;100.00;100083.59;15237876;19;21025;-49
2022/02/05 15:33:06;;;;;;;7.37;4.37;;;;;;;4.31;100.00;100118.50;15234439;19;20942;-49
2022/02/05 15:38:16;;;;;;;5.20;3.20;;;;;;;4.07;100.00;100119.53;15230069;19;20483;-50
2022/02/05 15:43:42;;;;;;;5.60;3.73;;;;;;;3.82;100.00;100127.56;15212947;19;20971;-50
2022/02/05 15:48:48;;;;;;;4.67;2.53;;;;;;;3.49;100.00;100142.94;15239498;19;20178;-52
2022/02/05 15:53:56;;;;;;;2.37;1.93;;;;;;;3.30;100.00;100157.72;15241258;19;20234;-52
2022/02/05 15:59:04;;;;;;;4.43;2.17;;;;;;;3.12;100.00;100152.22;15241178;19;20577;-49
2022/02/05 16:04:09;;;;;;;5.00;2.30;;;;;;;3.01;100.00;100166.72;15220878;19;20143;-50
2022/02/05 16:09:13;;;;;;;2.60;1.87;;;;;;;2.87;100.00;100175.09;15235635;19;20177;-49
2022/02/05 16:14:18;;;;;;;5.87;3.00;;;;;;;2.76;100.00;100179.88;15244561;19;20521;-50
2022/02/05 16:19:22;;;;;;;5.27;3.07;;;;;;;2.75;100.00;100191.34;15237127;19;20162;-50
2022/02/05 16:24:27;;;;;;;5.87;3.30;;;;;;;2.73;100.00;100219.50;15216601;19;21199;-49
2022/02/05 16:29:32;;;;;;;8.13;3.57;;;;;;;2.83;100.00;100213.00;15220653;19;20477;-50
2022/02/05 16:34:44;;;;;;;7.87;5.33;;;;;;;2.94;100.00;100213.50;15236374;19;20689;-50
2022/02/05 16:39:52;;;;;;;5.43;3.77;;;;;;;3.12;100.00;100223.41;15231602;19;20186;-50
2022/02/05 16:44:57;;;;;;;5.00;3.77;;;;;;;3.29;100.00;100229.84;15233851;19;20154;-51
2022/02/05 16:50:02;;;;;;;5.53;3.30;;;;;;;3.37;100.00;100233.06;15206930;19;20163;-49
2022/02/05 16:55:07;;;;;;;7.23;4.10;;;;;;;3.38;100.00;100234.78;15236797;19;20261;-50
2022/02/05 17:00:12;;;;;;;7.60;4.50;;;;;;;3.48;100.00;100262.56;15233399;19;20155;-49
2022/02/05 17:05:17;;;;;;;8.73;5.17;;;;;;;3.50;100.00;100244.91;15235112;19;20879;-50
2022/02/05 17:10:21;;;;;;;5.53;3.50;;;;;;;3.40;100.00;100243.47;15214664;19;20148;-49
2022/02/05 17:15:26;;;;;;;7.63;3.80;;;;;;;3.35;100.00;100253.38;15226860;19;20162;-49
2022/02/05 17:20:33;;;;;;;7.10;3.47;;;;;;;3.40;100.00;100254.03;15232667;19;20155;-49
2022/02/05 17:30:36;;;;;;;6.53;3.53;;;;;;;3.52;100.00;100259.72;15289829;19;21186;-50
2022/02/05 17:35:43;;;;;;;9.50;4.20;;;;;;;3.58;100.00;100263.94;15315061;19;20165;-49
2022/02/05 17:40:48;;;;;;;7.83;3.63;;;;;;;3.65;100.00;100278.63;15339374;19;20154;-50
2022/02/05 17:45:53;;;;;;;9.30;4.23;;;;;;;3.71;100.00;100280.19;15340391;19;20148;-50
2022/02/05 17:50:59;;;;;;;5.40;3.27;;;;;;;3.74;100.00;100286.22;15339156;19;20658;-49
2022/02/05 17:56:03;;;;;;;5.57;3.63;;;;;;;3.73;100.00;100281.00;15315201;19;20163;-51
2022/02/05 18:01:11;;;;;;;8.37;4.00;;;;;;;3.74;100.00;100285.34;15328387;19;21138;-49
2022/02/05 18:06:22;;;;;;;7.03;3.40;;;;;;;3.82;100.00;100278.00;15335633;19;20152;-49
2022/02/05 18:11:30;;;;;;;4.77;3.10;;;;;;;3.93;100.00;100287.25;15339651;19;20152;-49
2022/02/05 18:16:34;;;;;;;7.80;4.50;;;;;;;3.94;100.00;100288.97;15322752;19;20173;-50
2022/02/05 18:21:39;;;;;;;8.20;3.97;;;;;;;3.96;100.00;100281.00;15319708;19;20168;-49
2022/02/05 18:26:44;;;;;;;8.33;4.00;;;;;;;4.05;100.00;100277.13;15328276;19;20176;-51
2022/02/05 18:31:48;;;;;;;7.90;4.73;;;;;;;4.03;100.00;100292.16;15336351;19;20150;-50
2022/02/05 18:36:53;;;;;;;8.87;4.00;;;;;;;4.04;100.00;100286.84;15333845;19;20164;-50
2022/02/05 18:41:57;;;;;;;8.27;4.07;;;;;;;3.97;100.00;100288.84;15250550;19;20157;-49
2022/02/05 18:47:03;;;;;;;8.27;4.97;;;;;;;3.98;100.00;100285.28;15272120;19;20155;-51
2022/02/05 18:52:10;;;;;;;9.73;5.77;;;;;;;3.99;100.00;100287.00;15272682;19;20204;-50
2022/02/05 18:57:14;;;;;;;14.60;6.70;;;;;;;4.03;100.00;100292.16;15270190;19;20590;-50
2022/02/05 19:02:43;;;;;;;11.83;5.60;;;;;;;4.00;100.00;100290.50;15257048;19;20654;-49
2022/02/05 19:13:26;;;;;;;9.57;5.13;;;;;;;4.07;100.00;100301.69;15274917;19;20208;-49
2022/02/05 19:18:31;;;;;;;7.50;4.20;;;;;;;4.07;100.00;100294.66;15275538;19;20630;-49
2022/02/05 19:23:37;;;;;;;6.63;4.43;;;;;;;4.01;100.00;100300.16;15262266;19;20553;-50
2022/02/05 19:28:41;;;;;;;5.87;4.23;;;;;;;4.03;100.00;100298.31;15253263;19;20189;-49
2022/02/05 19:33:46;;;;;;;9.90;4.93;;;;;;;4.04;100.00;100304.44;15276983;19;20444;-49
2022/02/05 19:38:51;;;;;;;9.70;4.90;;;;;;;4.01;100.00;100288.72;15276235;19;20422;-49
2022/02/05 19:43:57;;;;;;;7.30;5.00;;;;;;;4.00;100.00;100290.50;15268503;19;20145;-49
2022/02/05 19:49:01;;;;;;;9.57;4.60;;;;;;;3.93;100.00;100281.09;15243913;19;20141;-50
2022/02/05 19:54:07;;;;;;;5.83;3.93;;;;;;;4.03;100.00;100298.31;15267603;19;20156;-49
2022/02/05 19:59:13;;;;;;;11.17;4.53;;;;;;;4.06;100.00;100297.34;15273619;19;20137;-50
2022/02/05 20:04:25;;;;;;;6.83;4.20;;;;;;;4.06;100.00;100292.06;15272165;19;20575;-50
2022/02/05 20:09:30;;;;;;;7.97;4.33;;;;;;;4.05;100.00;100295.63;15248275;19;20149;-50
2022/02/05 20:14:35;;;;;;;7.43;4.90;;;;;;;4.05;100.00;100306.19;15257502;19;20167;-49
2022/02/05 20:19:39;;;;;;;6.30;4.13;;;;;;;3.99;100.00;100292.28;15271787;19;20145;-50
2022/02/05 20:24:44;;;;;;;7.87;4.33;;;;;;;4.03;100.00;100300.94;15270494;19;20163;-49
2022/02/05 20:29:49;;;;;;;7.10;3.70;;;;;;;4.05;100.00;100301.75;15256990;19;20199;-50
2022/02/05 20:34:53;;;;;;;10.27;4.37;;;;;;;4.09;100.00;100302.50;15244490;19;20174;-49
2022/02/05 20:39:58;;;;;;;9.23;4.00;;;;;;;4.07;100.00;100299.06;15265181;19;20191;-50
2022/02/05 20:45:03;;;;;;;5.87;3.70;;;;;;;4.13;100.00;100293.53;15266860;19;20590;-50
2022/02/05 20:50:10;;;;;;;5.80;3.57;;;;;;;4.12;100.00;100287.38;15264931;19;20165;-49
2022/02/05 20:55:15;;;;;;;9.33;4.20;;;;;;;4.14;100.00;100279.41;15241761;19;20231;-50
2022/02/05 21:00:21;;;;;;;11.13;4.07;;;;;;;4.15;100.00;100282.00;15254623;19;20160;-49
2022/02/05 21:05:25;;;;;;;11.43;4.27;;;;;;;4.10;100.00;100281.34;15265013;19;20152;-49
2022/02/05 21:10:30;;;;;;;6.87;3.80;;;;;;;4.01;100.00;100278.16;15264790;19;20172;-50
2022/02/05 21:15:34;;;;;;;6.40;3.70;;;;;;;3.92;100.00;100282.88;15251240;19;20169;-49
2022/02/05 21:20:39;;;;;;;6.80;3.87;;;;;;;3.89;100.00;100288.25;15249698;19;20156;-49
2022/02/05 21:25:49;;;;;;;9.63;4.27;;;;;;;3.85;100.00;100285.81;15274596;19;20627;-49
2022/02/05 21:31:04;;;;;;;10.03;4.67;;;;;;;3.86;100.00;100285.75;15272674;19;20489;-49
2022/02/05 21:36:11;;;;;;;10.13;4.70;;;;;;;3.85;100.00;100289.31;15268342;19;20208;-50
2022/02/05 21:41:15;;;;;;;12.60;4.90;;;;;;;3.79;100.00;100268.41;15245078;19;20584;-51
2022/02/05 21:46:19;;;;;;;12.00;5.33;;;;;;;3.71;100.00;100274.91;15268440;19;20848;-50
2022/02/05 21:51:28;;;;;;;9.33;4.53;;;;;;;3.65;100.00;100270.69;15270556;19;20141;-49
2022/02/05 21:56:40;;;;;;;10.20;5.40;;;;;;;3.60;100.00;100268.25;15272813;19;20161;-49
2022/02/05 22:01:45;;;;;;;8.47;4.93;;;;;;;3.62;100.00;100263.75;15250541;19;20137;-50
2022/02/05 22:06:51;;;;;;;12.87;5.37;;;;;;;3.63;100.00;100256.69;15258192;19;20181;-50
2022/02/05 22:11:56;;;;;;;12.20;5.30;;;;;;;3.72;100.00;100261.66;15272142;19;20620;-49
2022/02/05 22:17:00;;;;;;;9.50;4.37;;;;;;;3.77;100.00;100243.84;15287514;19;20536;-50
2022/02/05 22:22:05;;;;;;;11.40;5.20;;;;;;;3.85;100.00;100243.59;15276750;19;20144;-50
2022/02/05 22:27:09;;;;;;;10.93;5.30;;;;;;;3.89;100.00;100246.03;15260542;19;20173;-50
2022/02/05 22:32:14;;;;;;;8.00;4.40;;;;;;;3.91;100.00;100246.84;15285927;19;20148;-50
2022/02/05 22:37:22;;;;;;;9.47;5.13;;;;;;;3.93;100.00;100234.44;15288501;19;20145;-50
2022/02/05 22:42:27;;;;;;;13.30;5.67;;;;;;;3.92;100.00;100232.72;15285794;19;20161;-50
2022/02/05 22:47:31;;;;;;;9.67;4.77;;;;;;;3.96;100.00;100226.41;15258111;19;20152;-50
2022/02/05 22:52:36;;;;;;;10.87;5.03;;;;;;;3.96;100.00;100213.22;15276007;19;20153;-50
2022/02/05 22:57:42;;;;;;;8.17;5.33;;;;;;;3.94;100.00;100204.50;15286306;19;20141;-49
2022/02/05 23:02:47;;;;;;;9.67;5.33;;;;;;;3.98;100.00;100213.16;15284983;19;20649;-49
2022/02/05 23:07:52;;;;;;;8.63;4.77;;;;;;;3.97;100.00;100214.94;15270045;19;20248;-50
2022/02/05 23:44:38;;;;;;;9.30;4.80;;;;;;;3.94;100.00;100183.38;15278957;19;20191;-49
2022/02/05 23:49:45;;;;;;;11.67;4.60;;;;;;;3.87;100.00;100166.03;15280829;19;20141;-50
2022/02/05 23:54:49;;;;;;;7.97;4.43;;;;;;;3.86;100.00;100164.34;15257044;19;20159;-49
2022/02/05 23:59:55;;;;;;;7.77;4.70;;;;;;;3.86;100.00;100166.97;15271730;19;20152;-50
